| time (UTC) | temp F | wind direction | speed knots | gust knots | rain 1hr in | rain 24hr in | rain mn in | humidity % | barometer mb |
| 20260509210059 | 82 | 138 | 0.9 | 1.7 | 0.00 | 0.00 | 0.00 | 94 | 1011.0 |
| 20260509204600 | 82 | 138 | 0.9 | 1.7 | 0.00 | 0.00 | 0.00 | 93 | 1011.0 |
| 20260509203059 | 82 | 138 | 0.9 | 1.7 | 0.00 | 0.00 | 0.00 | 94 | 1011.0 |
| 20260509201600 | 82 | 177 | 0.0 | 0.9 | 0.00 | 0.00 | 0.00 | 91 | 1011.0 |
| 20260509200100 | 82 | 177 | 0.0 | 0.9 | 0.00 | 0.00 | 0.00 | 94 | 1011.0 |
| 20260509194559 | 82 | 177 | 0.0 | 0.9 | 0.00 | 0.00 | 0.00 | 93 | 1011.0 |
| 20260509193100 | 82 | 177 | 0.0 | 0.9 | 0.00 | 0.00 | 0.00 | 94 | 1011.0 |
| 20260509191600 | 83 | 297 | 0.0 | 0.9 | 0.00 | 0.00 | 0.00 | 91 | 1011.0 |
| 20260509190100 | 83 | 297 | 0.0 | 0.9 | 0.00 | 0.00 | 0.00 | 94 | 1011.0 |
| 20260509184600 | 83 | 297 | 0.0 | 0.9 | 0.00 | 0.00 | 0.00 | 94 | 1011.0 |
| 20260509183100 | 83 | 297 | 0.0 | 0.9 | 0.00 | 0.00 | 0.00 | 95 | 1011.0 |
| 20260509181600 | 83 | 286 | 0.9 | 0.9 | 0.00 | 0.00 | 0.00 | 93 | 1012.0 |
| 20260509180101 | 83 | 286 | 0.9 | 0.9 | 0.00 | 0.00 | 0.00 | 93 | 1012.0 |
| 20260509174559 | 83 | 286 | 0.9 | 0.9 | 0.00 | 0.00 | 0.00 | 93 | 1012.0 |
| 20260509173100 | 83 | 346 | 0.0 | 1.7 | 0.00 | 0.00 | 0.00 | 94 | 1012.0 |
| 20260509171600 | 84 | 256 | 0.9 | 0.9 | 0.00 | 0.00 | 0.00 | 91 | 1012.0 |
| 20260509170059 | 84 | 256 | 0.9 | 0.9 | 0.00 | 0.00 | 0.00 | 93 | 1012.0 |
| 20260509164600 | 84 | 256 | 0.9 | 0.9 | 0.00 | 0.00 | 0.00 | 95 | 1012.0 |
| 20260509163059 | 84 | 256 | 0.9 | 0.9 | 0.00 | 0.00 | 0.00 | 94 | 1012.0 |
| 20260509161600 | 84 | 288 | 1.7 | 0.9 | 0.00 | 0.00 | 0.00 | 90 | 1012.0 |
| 20260509160059 | 84 | 288 | 1.7 | 0.9 | 0.00 | 0.00 | 0.00 | 94 | 1012.0 |
| 20260509154600 | 84 | 288 | 1.7 | 0.9 | 0.00 | 0.00 | 0.00 | 93 | 1012.0 |
| 20260509153100 | 84 | 288 | 1.7 | 0.9 | 0.00 | 0.00 | 0.00 | 94 | 1012.0 |
| 20260509151600 | 84 | 278 | 1.7 | 0.9 | 0.00 | 0.00 | 0.00 | 91 | 1012.0 |
| 20260509150100 | 84 | 278 | 1.7 | 0.9 | 0.00 | 0.00 | 0.00 | 94 | 1012.0 |
| 20260509144559 | 84 | 278 | 1.7 | 0.9 | 0.00 | 0.00 | 0.00 | 93 | 1012.0 |
| 20260509143059 | 84 | 278 | 1.7 | 0.9 | 0.00 | 0.00 | 0.00 | 93 | 1012.0 |
| 20260509141600 | 85 | 270 | 0.9 | 0.9 | 0.00 | 0.00 | 0.00 | 90 | 1012.0 |
| 20260509140059 | 85 | 270 | 0.9 | 0.9 | 0.00 | 0.00 | 0.00 | 92 | 1012.0 |
| 20260509134559 | 85 | 270 | 0.9 | 0.9 | 0.00 | 0.00 | 0.00 | 92 | 1012.0 |
| 20260509133100 | 85 | 270 | 0.9 | 0.9 | 0.00 | 0.00 | 0.00 | 93 | 1012.0 |
| 20260509131600 | 85 | 209 | 0.9 | 1.7 | 0.00 | 0.00 | 0.00 | 89 | 1012.0 |
| 20260509130059 | 86 | 209 | 0.9 | 1.7 | 0.00 | 0.00 | 0.00 | 92 | 1012.0 |
| 20260509124600 | 86 | 209 | 0.9 | 1.7 | 0.00 | 0.00 | 0.00 | 92 | 1012.0 |
| 20260509123100 | 86 | 209 | 0.9 | 1.7 | 0.00 | 0.00 | 0.00 | 92 | 1012.0 |
| 20260509121559 | 86 | 181 | 1.7 | 3.5 | 0.00 | 0.00 | 0.00 | 90 | 1011.0 |
| 20260509120100 | 86 | 181 | 1.7 | 3.5 | 0.00 | 0.00 | 0.00 | 90 | 1011.0 |
| 20260509114559 | 86 | 181 | 1.7 | 3.5 | 0.00 | 0.00 | 0.00 | 90 | 1011.0 |
| 20260509113100 | 86 | 190 | 0.9 | 2.6 | 0.00 | 0.00 | 0.00 | 92 | 1011.0 |
| 20260509111600 | 87 | 200 | 0.9 | 2.6 | 0.00 | 0.00 | 0.00 | 87 | 1010.0 |
| 20260509110100 | 87 | 200 | 0.9 | 2.6 | 0.00 | 0.00 | 0.00 | 91 | 1010.0 |
| 20260509104600 | 87 | 200 | 0.9 | 2.6 | 0.00 | 0.00 | 0.00 | 90 | 1010.0 |
| 20260509103059 | 87 | 200 | 0.9 | 2.6 | 0.00 | 0.00 | 0.00 | 90 | 1010.0 |
| 20260509101600 | 87 | 182 | 2.6 | 4.3 | 0.00 | 0.00 | 0.00 | 85 | 1010.0 |
| 20260509100059 | 87 | 182 | 2.6 | 4.3 | 0.00 | 0.00 | 0.00 | 86 | 1010.0 |
| 20260509094600 | 88 | 182 | 2.6 | 4.3 | 0.00 | 0.00 | 0.00 | 85 | 1010.0 |
| 20260509093100 | 82 | 227 | 0.9 | 0.9 | 0.00 | 0.00 | 0.00 | 74 | 1010.0 |
| 20260509091600 | 82 | 227 | 0.9 | 0.9 | 0.00 | 0.00 | 0.00 | 74 | 1009.0 |
| 20260509090100 | 82 | 227 | 0.9 | 0.9 | 0.00 | 0.00 | 0.00 | 74 | 1009.0 |
| 20260509084559 | 82 | 227 | 0.9 | 0.9 | 0.00 | 0.00 | 0.00 | 74 | 1009.0 |
| 20260509083100 | 82 | 227 | 0.9 | 0.9 | 0.00 | 0.00 | 0.00 | 74 | 1009.0 |
| 20260509081600 | 82 | 227 | 0.9 | 0.9 | 0.00 | 0.00 | 0.00 | 74 | 1009.0 |
| 20260509080100 | 82 | 227 | 0.9 | 0.9 | 0.00 | 0.00 | 0.00 | 74 | 1009.0 |
| 20260509074600 | 82 | 227 | 0.9 | 0.9 | 0.00 | 0.00 | 0.00 | 74 | 1009.0 |
| 20260509073107 | 82 | 227 | 0.9 | 0.9 | 0.00 | 0.00 | 0.00 | 74 | 1009.0 |
| 20260509071600 | 82 | 227 | 0.9 | 0.9 | 0.00 | 0.00 | 0.00 | 74 | 1009.0 |
| 20260509070100 | 82 | 227 | 0.9 | 0.9 | 0.00 | 0.00 | 0.00 | 74 | 1009.0 |
| 20260509064600 | 82 | 227 | 0.9 | 0.9 | 0.00 | 0.00 | 0.00 | 74 | 1009.0 |
| 20260509063100 | 82 | 227 | 0.9 | 0.9 | 0.00 | 0.00 | 0.00 | 74 | 1009.0 |
| 20260509061600 | 82 | 227 | 0.9 | 0.9 | 0.00 | 0.00 | 0.00 | 74 | 1010.0 |
| 20260509060100 | 82 | 227 | 0.9 | 0.9 | 0.00 | 0.00 | 0.00 | 74 | 1010.0 |
| 20260509054600 | 82 | 227 | 0.9 | 0.9 | 0.00 | 0.00 | 0.00 | 74 | 1010.0 |
| 20260509053100 | 82 | 227 | 0.9 | 0.9 | 0.00 | 0.00 | 0.00 | 74 | 1010.0 |
| 20260509051600 | 82 | 227 | 0.9 | 0.9 | 0.00 | 0.00 | 0.00 | 74 | 1010.0 |
| 20260509050100 | 82 | 227 | 0.9 | 0.9 | 0.00 | 0.00 | 0.00 | 74 | 1010.0 |
| 20260509044600 | 82 | 227 | 0.9 | 0.9 | 0.00 | 0.00 | 0.00 | 74 | 1010.0 |
| 20260509043100 | 82 | 227 | 0.9 | 0.9 | 0.00 | 0.00 | 0.00 | 74 | 1010.0 |
| 20260509041600 | 82 | 227 | 0.9 | 0.9 | 0.00 | 0.00 | 0.00 | 74 | 1011.0 |
| 20260509034600 | 82 | 227 | 0.9 | 0.9 | 0.00 | 0.00 | 0.00 | 74 | 1011.0 |
| 20260509033101 | 82 | 227 | 0.9 | 0.9 | 0.00 | 0.00 | 0.00 | 74 | 1011.0 |
| 20260509031600 | 82 | 227 | 0.9 | 0.9 | 0.00 | 0.00 | 0.00 | 74 | 1012.0 |
| 20260509024600 | 81 | 227 | 0.9 | 0.9 | 0.00 | 0.00 | 0.00 | 76 | 1012.0 |
| 20260509023101 | 81 | 227 | 0.9 | 0.9 | 0.00 | 0.00 | 0.00 | 76 | 1012.0 |
| 20260509021601 | 80 | 227 | 0.9 | 0.9 | 0.00 | 0.00 | 0.00 | 76 | 1012.0 |
| 20260509020104 | 80 | 227 | 0.9 | 0.9 | 0.00 | 0.00 | 0.00 | 76 | 1012.0 |
| 20260509014601 | 80 | 227 | 0.9 | 0.9 | 0.00 | 0.00 | 0.00 | 77 | 1012.0 |
| 20260509013100 | 80 | 227 | 0.9 | 0.9 | 0.00 | 0.00 | 0.00 | 77 | 1012.0 |
| 20260509011600 | 80 | 227 | 0.9 | 0.9 | 0.00 | 0.00 | 0.00 | 77 | 1012.0 |
| 20260509004600 | 80 | 227 | 0.9 | 0.9 | 0.00 | 0.00 | 0.00 | 77 | 1012.0 |
| 20260509003102 | 80 | 227 | 0.9 | 0.9 | 0.00 | 0.00 | 0.00 | 77 | 1012.0 |
| 20260509001600 | 80 | 112 | 0.0 | 0.9 | 0.00 | 0.00 | 0.00 | 77 | 1011.0 |
| 20260509000103 | 80 | 112 | 0.0 | 0.9 | 0.00 | 0.00 | 0.00 | 77 | 1011.0 |
| 20260508234600 | 80 | 112 | 0.0 | 0.9 | 0.00 | 0.00 | 0.00 | 77 | 1011.0 |
| 20260508233101 | 82 | 131 | 0.0 | 0.9 | 0.00 | 0.00 | 0.00 | 86 | 1011.0 |
| 20260508231600 | 80 | 350 | 0.9 | 0.9 | 0.00 | 0.00 | 0.00 | 78 | 1011.0 |
| 20260508224600 | 80 | 350 | 0.9 | 0.9 | 0.00 | 0.00 | 0.00 | 78 | 1011.0 |
| 20260508223101 | 80 | 350 | 0.9 | 0.9 | 0.00 | 0.00 | 0.00 | 78 | 1011.0 |
| 20260508221600 | 80 | 355 | 0.0 | 0.9 | 0.00 | 0.00 | 0.00 | 78 | 1010.0 |
| 20260508214600 | 80 | 355 | 0.0 | 0.9 | 0.00 | 0.00 | 0.00 | 78 | 1010.0 |
| 20260508213101 | 80 | 355 | 0.0 | 0.9 | 0.00 | 0.00 | 0.00 | 78 | 1010.0 |
| 20260508211601 | 80 | 311 | 0.9 | 0.9 | 0.00 | 0.00 | 0.00 | 77 | 1010.0 |